sensor_id;sensor_type;location;lat;lon;timestamp;temperature;humidity
20594;DHT22;10455;48.732;10.266;2023-12-20T00:01:08;4.30;99.90
20594;DHT22;10455;48.732;10.266;2023-12-20T00:06:10;4.10;99.90
20594;DHT22;10455;48.732;10.266;2023-12-20T00:11:14;4.10;99.90
20594;DHT22;10455;48.732;10.266;2023-12-20T00:16:16;4.00;99.90
20594;DHT22;10455;48.732;10.266;2023-12-20T00:21:17;4.20;99.90
20594;DHT22;10455;48.732;10.266;2023-12-20T00:26:21;4.30;99.90
20594;DHT22;10455;48.732;10.266;2023-12-20T00:31:22;4.30;99.90
20594;DHT22;10455;48.732;10.266;2023-12-20T00:36:24;4.30;99.90
20594;DHT22;10455;48.732;10.266;2023-12-20T00:41:27;4.10;99.90
20594;DHT22;10455;48.732;10.266;2023-12-20T00:46:29;4.10;99.90
20594;DHT22;10455;48.732;10.266;2023-12-20T00:51:31;4.20;99.90
20594;DHT22;10455;48.732;10.266;2023-12-20T00:56:35;4.30;99.90
20594;DHT22;10455;48.732;10.266;2023-12-20T01:01:36;4.40;99.90
20594;DHT22;10455;48.732;10.266;2023-12-20T01:06:38;4.30;99.90
20594;DHT22;10455;48.732;10.266;2023-12-20T01:11:42;4.40;99.90
20594;DHT22;10455;48.732;10.266;2023-12-20T01:16:44;4.30;99.90
20594;DHT22;10455;48.732;10.266;2023-12-20T01:21:46;4.30;99.90
20594;DHT22;10455;48.732;10.266;2023-12-20T01:26:49;4.40;99.90
20594;DHT22;10455;48.732;10.266;2023-12-20T01:31:51;4.20;99.90
20594;DHT22;10455;48.732;10.266;2023-12-20T01:36:53;4.10;99.90
20594;DHT22;10455;48.732;10.266;2023-12-20T01:41:56;4.10;99.90
20594;DHT22;10455;48.732;10.266;2023-12-20T01:46:58;4.00;99.90
20594;DHT22;10455;48.732;10.266;2023-12-20T01:52:00;4.10;99.90
20594;DHT22;10455;48.732;10.266;2023-12-20T01:57:05;4.10;99.90
20594;DHT22;10455;48.732;10.266;2023-12-20T02:02:07;4.10;99.90
20594;DHT22;10455;48.732;10.266;2023-12-20T02:07:10;4.00;99.90
20594;DHT22;10455;48.732;10.266;2023-12-20T02:12:14;4.10;99.90
20594;DHT22;10455;48.732;10.266;2023-12-20T02:17:16;4.10;99.90
20594;DHT22;10455;48.732;10.266;2023-12-20T02:22:19;4.20;99.90
20594;DHT22;10455;48.732;10.266;2023-12-20T02:27:22;4.40;99.90
20594;DHT22;10455;48.732;10.266;2023-12-20T02:32:25;4.40;99.90
20594;DHT22;10455;48.732;10.266;2023-12-20T02:37:29;4.60;99.90
20594;DHT22;10455;48.732;10.266;2023-12-20T02:42:30;4.80;99.90
20594;DHT22;10455;48.732;10.266;2023-12-20T02:47:32;5.10;99.90
20594;DHT22;10455;48.732;10.266;2023-12-20T02:52:35;5.10;99.90
20594;DHT22;10455;48.732;10.266;2023-12-20T02:57:37;5.30;99.90
20594;DHT22;10455;48.732;10.266;2023-12-20T03:02:42;5.10;99.90
20594;DHT22;10455;48.732;10.266;2023-12-20T03:07:45;5.10;99.90
20594;DHT22;10455;48.732;10.266;2023-12-20T03:12:47;5.00;99.90
20594;DHT22;10455;48.732;10.266;2023-12-20T03:17:49;4.70;99.90
20594;DHT22;10455;48.732;10.266;2023-12-20T03:22:52;4.50;99.90
20594;DHT22;10455;48.732;10.266;2023-12-20T03:27:54;4.60;99.90
20594;DHT22;10455;48.732;10.266;2023-12-20T03:32:56;4.70;99.90
20594;DHT22;10455;48.732;10.266;2023-12-20T03:38:00;4.70;99.90
20594;DHT22;10455;48.732;10.266;2023-12-20T03:43:01;4.80;99.90
20594;DHT22;10455;48.732;10.266;2023-12-20T03:48:04;4.90;99.90
20594;DHT22;10455;48.732;10.266;2023-12-20T03:53:08;5.00;99.90
20594;DHT22;10455;48.732;10.266;2023-12-20T03:58:09;5.10;99.90
20594;DHT22;10455;48.732;10.266;2023-12-20T04:03:11;5.10;99.90
20594;DHT22;10455;48.732;10.266;2023-12-20T04:08:16;4.90;99.90
20594;DHT22;10455;48.732;10.266;2023-12-20T04:13:17;4.90;99.90
20594;DHT22;10455;48.732;10.266;2023-12-20T04:18:19;4.90;99.90
20594;DHT22;10455;48.732;10.266;2023-12-20T04:23:22;5.00;99.90
20594;DHT22;10455;48.732;10.266;2023-12-20T04:28:24;4.90;99.90
20594;DHT22;10455;48.732;10.266;2023-12-20T04:33:26;4.80;99.90
20594;DHT22;10455;48.732;10.266;2023-12-20T04:38:29;4.70;99.90
20594;DHT22;10455;48.732;10.266;2023-12-20T04:43:31;4.70;99.90
20594;DHT22;10455;48.732;10.266;2023-12-20T04:48:33;4.70;99.90
20594;DHT22;10455;48.732;10.266;2023-12-20T04:53:36;4.70;99.90
20594;DHT22;10455;48.732;10.266;2023-12-20T04:58:38;4.60;99.90
20594;DHT22;10455;48.732;10.266;2023-12-20T05:03:40;4.50;99.90
20594;DHT22;10455;48.732;10.266;2023-12-20T05:08:43;4.30;99.90
20594;DHT22;10455;48.732;10.266;2023-12-20T05:13:45;4.20;99.90
20594;DHT22;10455;48.732;10.266;2023-12-20T05:18:48;4.30;99.90
20594;DHT22;10455;48.732;10.266;2023-12-20T05:23:53;4.20;99.90
20594;DHT22;10455;48.732;10.266;2023-12-20T05:28:54;4.20;99.90
20594;DHT22;10455;48.732;10.266;2023-12-20T05:33:56;4.30;99.90
20594;DHT22;10455;48.732;10.266;2023-12-20T05:39:00;4.20;99.90
20594;DHT22;10455;48.732;10.266;2023-12-20T05:44:02;4.20;99.90
20594;DHT22;10455;48.732;10.266;2023-12-20T05:49:04;4.30;99.90
20594;DHT22;10455;48.732;10.266;2023-12-20T05:54:08;4.30;99.90
20594;DHT22;10455;48.732;10.266;2023-12-20T05:59:10;4.30;99.90
20594;DHT22;10455;48.732;10.266;2023-12-20T06:04:12;4.30;99.90
20594;DHT22;10455;48.732;10.266;2023-12-20T06:09:15;4.30;99.90
20594;DHT22;10455;48.732;10.266;2023-12-20T06:14:17;4.30;99.90
20594;DHT22;10455;48.732;10.266;2023-12-20T06:19:19;4.30;99.90
20594;DHT22;10455;48.732;10.266;2023-12-20T06:24:22;4.20;99.90
20594;DHT22;10455;48.732;10.266;2023-12-20T06:29:28;4.30;99.90
20594;DHT22;10455;48.732;10.266;2023-12-20T06:34:31;4.40;99.90
20594;DHT22;10455;48.732;10.266;2023-12-20T06:39:34;4.30;99.90
20594;DHT22;10455;48.732;10.266;2023-12-20T06:44:36;4.40;99.90
20594;DHT22;10455;48.732;10.266;2023-12-20T06:49:39;4.30;99.90
20594;DHT22;10455;48.732;10.266;2023-12-20T06:54:42;4.40;99.90
20594;DHT22;10455;48.732;10.266;2023-12-20T06:59:44;4.40;99.90
20594;DHT22;10455;48.732;10.266;2023-12-20T07:04:46;4.50;99.90
20594;DHT22;10455;48.732;10.266;2023-12-20T07:14:51;4.50;99.90
20594;DHT22;10455;48.732;10.266;2023-12-20T07:19:53;4.50;99.90
20594;DHT22;10455;48.732;10.266;2023-12-20T07:24:57;4.50;99.90
20594;DHT22;10455;48.732;10.266;2023-12-20T07:29:59;4.60;99.90
20594;DHT22;10455;48.732;10.266;2023-12-20T07:35:02;4.60;99.90
20594;DHT22;10455;48.732;10.266;2023-12-20T07:40:10;4.60;99.90
20594;DHT22;10455;48.732;10.266;2023-12-20T07:45:12;4.60;99.90
20594;DHT22;10455;48.732;10.266;2023-12-20T07:50:14;4.70;99.90
20594;DHT22;10455;48.732;10.266;2023-12-20T07:55:17;4.70;99.90
20594;DHT22;10455;48.732;10.266;2023-12-20T08:00:21;4.80;99.90
20594;DHT22;10455;48.732;10.266;2023-12-20T08:05:22;4.80;99.90
20594;DHT22;10455;48.732;10.266;2023-12-20T08:10:26;4.90;99.90
20594;DHT22;10455;48.732;10.266;2023-12-20T08:15:30;4.90;99.90
20594;DHT22;10455;48.732;10.266;2023-12-20T08:20:32;5.00;99.90
20594;DHT22;10455;48.732;10.266;2023-12-20T08:25:35;5.00;99.90
20594;DHT22;10455;48.732;10.266;2023-12-20T08:30:37;5.00;99.90
20594;DHT22;10455;48.732;10.266;2023-12-20T08:35:39;5.00;99.90
20594;DHT22;10455;48.732;10.266;2023-12-20T08:40:43;5.20;99.90
20594;DHT22;10455;48.732;10.266;2023-12-20T08:45:45;5.20;99.90
20594;DHT22;10455;48.732;10.266;2023-12-20T08:50:47;5.50;99.90
20594;DHT22;10455;48.732;10.266;2023-12-20T08:55:52;5.30;99.90
20594;DHT22;10455;48.732;10.266;2023-12-20T09:00:53;5.30;99.90
20594;DHT22;10455;48.732;10.266;2023-12-20T09:10:59;5.40;99.90
20594;DHT22;10455;48.732;10.266;2023-12-20T09:16:03;5.30;99.90
20594;DHT22;10455;48.732;10.266;2023-12-20T09:21:07;5.20;99.90
20594;DHT22;10455;48.732;10.266;2023-12-20T09:26:11;5.20;99.90
20594;DHT22;10455;48.732;10.266;2023-12-20T09:31:13;5.20;99.90
20594;DHT22;10455;48.732;10.266;2023-12-20T09:36:14;5.00;99.90
20594;DHT22;10455;48.732;10.266;2023-12-20T09:41:18;4.70;99.90
20594;DHT22;10455;48.732;10.266;2023-12-20T09:46:24;4.80;99.90
20594;DHT22;10455;48.732;10.266;2023-12-20T09:51:29;5.00;99.90
20594;DHT22;10455;48.732;10.266;2023-12-20T09:56:34;5.30;99.90
20594;DHT22;10455;48.732;10.266;2023-12-20T10:01:35;7.50;99.90
20594;DHT22;10455;48.732;10.266;2023-12-20T10:06:40;8.60;99.90
20594;DHT22;10455;48.732;10.266;2023-12-20T10:11:43;7.90;99.90
20594;DHT22;10455;48.732;10.266;2023-12-20T10:16:45;6.50;99.90
20594;DHT22;10455;48.732;10.266;2023-12-20T10:21:48;6.40;99.90
20594;DHT22;10455;48.732;10.266;2023-12-20T10:27:01;8.70;99.90
20594;DHT22;10455;48.732;10.266;2023-12-20T10:32:25;7.30;99.90
20594;DHT22;10455;48.732;10.266;2023-12-20T10:37:27;6.40;99.90
20594;DHT22;10455;48.732;10.266;2023-12-20T10:42:31;5.60;99.90
20594;DHT22;10455;48.732;10.266;2023-12-20T10:47:34;5.00;99.90
20594;DHT22;10455;48.732;10.266;2023-12-20T10:52:38;5.30;99.90
20594;DHT22;10455;48.732;10.266;2023-12-20T10:57:41;5.40;99.90
20594;DHT22;10455;48.732;10.266;2023-12-20T11:02:44;6.10;99.90
20594;DHT22;10455;48.732;10.266;2023-12-20T11:07:49;7.00;99.90
20594;DHT22;10455;48.732;10.266;2023-12-20T11:12:57;7.20;99.90
20594;DHT22;10455;48.732;10.266;2023-12-20T11:18:00;6.80;99.90
20594;DHT22;10455;48.732;10.266;2023-12-20T11:23:02;6.40;99.90
20594;DHT22;10455;48.732;10.266;2023-12-20T11:28:10;6.00;99.90
20594;DHT22;10455;48.732;10.266;2023-12-20T11:33:13;5.60;99.90
20594;DHT22;10455;48.732;10.266;2023-12-20T11:38:15;5.90;99.90
20594;DHT22;10455;48.732;10.266;2023-12-20T11:43:31;5.50;99.90
20594;DHT22;10455;48.732;10.266;2023-12-20T11:48:35;5.10;99.90
20594;DHT22;10455;48.732;10.266;2023-12-20T11:53:37;5.00;99.90
20594;DHT22;10455;48.732;10.266;2023-12-20T11:58:40;5.00;99.90
20594;DHT22;10455;48.732;10.266;2023-12-20T12:03:43;4.90;99.90
20594;DHT22;10455;48.732;10.266;2023-12-20T12:08:45;4.90;99.90
20594;DHT22;10455;48.732;10.266;2023-12-20T12:13:48;5.10;99.90
20594;DHT22;10455;48.732;10.266;2023-12-20T12:18:56;5.40;99.90
20594;DHT22;10455;48.732;10.266;2023-12-20T12:24:06;5.40;99.90
20594;DHT22;10455;48.732;10.266;2023-12-20T12:29:10;5.90;99.90
20594;DHT22;10455;48.732;10.266;2023-12-20T12:34:12;5.40;99.90
20594;DHT22;10455;48.732;10.266;2023-12-20T12:39:13;5.20;99.90
20594;DHT22;10455;48.732;10.266;2023-12-20T12:44:17;5.10;99.90
20594;DHT22;10455;48.732;10.266;2023-12-20T12:49:23;5.30;99.90
20594;DHT22;10455;48.732;10.266;2023-12-20T12:54:25;5.10;99.90
20594;DHT22;10455;48.732;10.266;2023-12-20T12:59:28;5.00;99.90
20594;DHT22;10455;48.732;10.266;2023-12-20T13:04:30;4.80;99.90
20594;DHT22;10455;48.732;10.266;2023-12-20T13:09:32;4.50;99.90
20594;DHT22;10455;48.732;10.266;2023-12-20T13:14:36;4.60;99.90
20594;DHT22;10455;48.732;10.266;2023-12-20T13:19:38;4.80;99.90
20594;DHT22;10455;48.732;10.266;2023-12-20T13:24:40;4.70;99.90
20594;DHT22;10455;48.732;10.266;2023-12-20T13:29:46;4.70;99.90
20594;DHT22;10455;48.732;10.266;2023-12-20T13:34:47;4.60;99.90
20594;DHT22;10455;48.732;10.266;2023-12-20T13:39:50;4.60;99.90
20594;DHT22;10455;48.732;10.266;2023-12-20T13:44:53;4.50;99.90
20594;DHT22;10455;48.732;10.266;2023-12-20T13:49:56;4.80;99.90
20594;DHT22;10455;48.732;10.266;2023-12-20T13:54:58;5.00;99.90
20594;DHT22;10455;48.732;10.266;2023-12-20T14:00:01;5.30;99.90
20594;DHT22;10455;48.732;10.266;2023-12-20T14:05:05;5.30;99.90
20594;DHT22;10455;48.732;10.266;2023-12-20T14:10:08;5.00;99.90
20594;DHT22;10455;48.732;10.266;2023-12-20T14:15:12;4.80;99.90
20594;DHT22;10455;48.732;10.266;2023-12-20T14:20:13;4.70;99.90
20594;DHT22;10455;48.732;10.266;2023-12-20T14:25:16;4.50;99.90
20594;DHT22;10455;48.732;10.266;2023-12-20T14:30:19;4.40;99.90
20594;DHT22;10455;48.732;10.266;2023-12-20T14:35:21;4.20;99.90
20594;DHT22;10455;48.732;10.266;2023-12-20T14:40:23;4.00;99.90
20594;DHT22;10455;48.732;10.266;2023-12-20T14:45:26;3.90;99.90
20594;DHT22;10455;48.732;10.266;2023-12-20T14:50:28;3.90;99.90
20594;DHT22;10455;48.732;10.266;2023-12-20T15:00:34;3.80;99.90
20594;DHT22;10455;48.732;10.266;2023-12-20T15:05:35;3.70;99.90
20594;DHT22;10455;48.732;10.266;2023-12-20T15:10:38;3.60;99.90
20594;DHT22;10455;48.732;10.266;2023-12-20T15:15:41;3.60;99.90
20594;DHT22;10455;48.732;10.266;2023-12-20T15:20:43;3.90;99.90
20594;DHT22;10455;48.732;10.266;2023-12-20T15:25:45;3.90;99.90
20594;DHT22;10455;48.732;10.266;2023-12-20T15:30:48;3.90;99.90
20594;DHT22;10455;48.732;10.266;2023-12-20T15:35:50;3.60;99.90
20594;DHT22;10455;48.732;10.266;2023-12-20T15:40:52;3.70;99.90
20594;DHT22;10455;48.732;10.266;2023-12-20T15:45:55;3.50;99.90
20594;DHT22;10455;48.732;10.266;2023-12-20T15:50:57;3.70;99.90
20594;DHT22;10455;48.732;10.266;2023-12-20T15:55:59;3.70;99.90
20594;DHT22;10455;48.732;10.266;2023-12-20T16:01:02;3.60;99.90
20594;DHT22;10455;48.732;10.266;2023-12-20T16:06:05;3.50;99.90
20594;DHT22;10455;48.732;10.266;2023-12-20T16:11:07;3.60;99.90
20594;DHT22;10455;48.732;10.266;2023-12-20T16:16:11;3.50;99.90
20594;DHT22;10455;48.732;10.266;2023-12-20T16:21:12;3.50;99.90
20594;DHT22;10455;48.732;10.266;2023-12-20T16:26:14;3.30;99.90
20594;DHT22;10455;48.732;10.266;2023-12-20T16:31:17;2.90;99.90
20594;DHT22;10455;48.732;10.266;2023-12-20T16:36:19;2.70;99.90
20594;DHT22;10455;48.732;10.266;2023-12-20T16:41:21;2.90;99.90
20594;DHT22;10455;48.732;10.266;2023-12-20T16:46:25;2.70;99.90
20594;DHT22;10455;48.732;10.266;2023-12-20T16:51:27;2.50;99.90
20594;DHT22;10455;48.732;10.266;2023-12-20T16:56:30;2.50;99.90
20594;DHT22;10455;48.732;10.266;2023-12-20T17:01:33;2.50;99.90
20594;DHT22;10455;48.732;10.266;2023-12-20T17:06:35;2.70;99.90
20594;DHT22;10455;48.732;10.266;2023-12-20T17:11:38;2.80;99.90
20594;DHT22;10455;48.732;10.266;2023-12-20T17:16:41;2.80;99.90
20594;DHT22;10455;48.732;10.266;2023-12-20T17:21:43;3.10;99.90
20594;DHT22;10455;48.732;10.266;2023-12-20T17:26:45;2.90;99.90
20594;DHT22;10455;48.732;10.266;2023-12-20T17:31:48;3.00;99.90
20594;DHT22;10455;48.732;10.266;2023-12-20T17:36:50;3.00;99.90
20594;DHT22;10455;48.732;10.266;2023-12-20T17:41:52;3.00;99.90
20594;DHT22;10455;48.732;10.266;2023-12-20T17:46:55;3.10;99.90
20594;DHT22;10455;48.732;10.266;2023-12-20T17:51:57;3.10;99.90
20594;DHT22;10455;48.732;10.266;2023-12-20T17:56:59;3.30;99.90
20594;DHT22;10455;48.732;10.266;2023-12-20T18:02:02;3.30;99.90
20594;DHT22;10455;48.732;10.266;2023-12-20T18:07:04;3.30;99.90
20594;DHT22;10455;48.732;10.266;2023-12-20T18:12:06;3.00;99.90
20594;DHT22;10455;48.732;10.266;2023-12-20T18:17:10;2.90;99.90
20594;DHT22;10455;48.732;10.266;2023-12-20T18:22:12;3.10;99.90
20594;DHT22;10455;48.732;10.266;2023-12-20T18:27:14;3.30;99.90
20594;DHT22;10455;48.732;10.266;2023-12-20T18:32:17;3.30;99.90
20594;DHT22;10455;48.732;10.266;2023-12-20T18:37:19;3.30;99.90
20594;DHT22;10455;48.732;10.266;2023-12-20T18:42:21;3.40;99.90
20594;DHT22;10455;48.732;10.266;2023-12-20T18:47:25;3.40;99.90
20594;DHT22;10455;48.732;10.266;2023-12-20T18:52:27;3.50;99.90
20594;DHT22;10455;48.732;10.266;2023-12-20T18:57:29;3.50;99.90
20594;DHT22;10455;48.732;10.266;2023-12-20T19:02:32;3.50;99.90
20594;DHT22;10455;48.732;10.266;2023-12-20T19:07:35;3.80;99.90
20594;DHT22;10455;48.732;10.266;2023-12-20T19:12:39;3.70;99.90
20594;DHT22;10455;48.732;10.266;2023-12-20T19:17:43;3.80;99.90
20594;DHT22;10455;48.732;10.266;2023-12-20T19:22:44;3.70;99.90
20594;DHT22;10455;48.732;10.266;2023-12-20T19:27:47;3.80;99.90
20594;DHT22;10455;48.732;10.266;2023-12-20T19:32:50;3.80;99.90
20594;DHT22;10455;48.732;10.266;2023-12-20T19:37:52;3.80;99.90
20594;DHT22;10455;48.732;10.266;2023-12-20T19:42:55;3.70;99.90
20594;DHT22;10455;48.732;10.266;2023-12-20T19:47:58;3.80;99.90
20594;DHT22;10455;48.732;10.266;2023-12-20T19:53:00;3.80;99.90
20594;DHT22;10455;48.732;10.266;2023-12-20T19:58:02;3.70;99.90
20594;DHT22;10455;48.732;10.266;2023-12-20T20:03:06;3.60;99.90
20594;DHT22;10455;48.732;10.266;2023-12-20T20:08:08;3.50;99.90
20594;DHT22;10455;48.732;10.266;2023-12-20T20:13:10;3.30;99.90
20594;DHT22;10455;48.732;10.266;2023-12-20T20:18:13;3.30;99.90
20594;DHT22;10455;48.732;10.266;2023-12-20T20:23:15;3.30;99.90
20594;DHT22;10455;48.732;10.266;2023-12-20T20:28:17;3.30;99.90
20594;DHT22;10455;48.732;10.266;2023-12-20T20:33:22;3.50;99.90
20594;DHT22;10455;48.732;10.266;2023-12-20T20:38:24;3.30;99.90
20594;DHT22;10455;48.732;10.266;2023-12-20T20:43:26;3.30;99.90
20594;DHT22;10455;48.732;10.266;2023-12-20T20:48:30;3.40;99.90
20594;DHT22;10455;48.732;10.266;2023-12-20T20:53:31;3.50;99.90
20594;DHT22;10455;48.732;10.266;2023-12-20T20:58:33;3.50;99.90
20594;DHT22;10455;48.732;10.266;2023-12-20T21:03:37;3.40;99.90
20594;DHT22;10455;48.732;10.266;2023-12-20T21:08:39;3.40;99.90
20594;DHT22;10455;48.732;10.266;2023-12-20T21:13:41;3.50;99.90
20594;DHT22;10455;48.732;10.266;2023-12-20T21:18:44;3.70;99.90
20594;DHT22;10455;48.732;10.266;2023-12-20T21:23:49;3.70;99.90
20594;DHT22;10455;48.732;10.266;2023-12-20T21:28:53;3.70;99.90
20594;DHT22;10455;48.732;10.266;2023-12-20T21:33:58;3.70;99.90
20594;DHT22;10455;48.732;10.266;2023-12-20T21:39:00;3.80;99.90
20594;DHT22;10455;48.732;10.266;2023-12-20T21:44:02;3.70;99.90
20594;DHT22;10455;48.732;10.266;2023-12-20T21:49:07;3.80;99.90
20594;DHT22;10455;48.732;10.266;2023-12-20T21:54:09;3.80;99.90
20594;DHT22;10455;48.732;10.266;2023-12-20T21:59:12;3.70;99.90
20594;DHT22;10455;48.732;10.266;2023-12-20T22:04:15;3.60;99.90
20594;DHT22;10455;48.732;10.266;2023-12-20T22:09:17;3.70;99.90
20594;DHT22;10455;48.732;10.266;2023-12-20T22:14:18;3.70;99.90
20594;DHT22;10455;48.732;10.266;2023-12-20T22:19:22;3.60;99.90
20594;DHT22;10455;48.732;10.266;2023-12-20T22:24:24;3.40;99.90
20594;DHT22;10455;48.732;10.266;2023-12-20T22:29:26;3.70;99.90
20594;DHT22;10455;48.732;10.266;2023-12-20T22:34:30;3.50;99.90
20594;DHT22;10455;48.732;10.266;2023-12-20T22:39:32;3.60;99.90
20594;DHT22;10455;48.732;10.266;2023-12-20T22:44:34;3.70;99.90
20594;DHT22;10455;48.732;10.266;2023-12-20T22:49:37;3.80;99.90
20594;DHT22;10455;48.732;10.266;2023-12-20T22:54:39;3.90;99.90
20594;DHT22;10455;48.732;10.266;2023-12-20T22:59:41;3.90;99.90
20594;DHT22;10455;48.732;10.266;2023-12-20T23:04:45;4.00;99.90
20594;DHT22;10455;48.732;10.266;2023-12-20T23:09:47;3.90;99.90
20594;DHT22;10455;48.732;10.266;2023-12-20T23:14:48;3.90;99.90
20594;DHT22;10455;48.732;10.266;2023-12-20T23:19:53;3.90;99.90
20594;DHT22;10455;48.732;10.266;2023-12-20T23:24:55;3.80;99.90
20594;DHT22;10455;48.732;10.266;2023-12-20T23:29:57;3.80;99.90
20594;DHT22;10455;48.732;10.266;2023-12-20T23:35:00;4.00;99.90
20594;DHT22;10455;48.732;10.266;2023-12-20T23:40:02;3.90;99.90
20594;DHT22;10455;48.732;10.266;2023-12-20T23:45:06;4.00;99.90
20594;DHT22;10455;48.732;10.266;2023-12-20T23:50:10;3.90;99.90
20594;DHT22;10455;48.732;10.266;2023-12-20T23:55:12;3.80;99.90
